createdAt,value
2022-10-18T00:03:13.485Z,13.50
2022-10-18T00:08:17.298Z,13.50
2022-10-18T00:13:20.433Z,13.20
2022-10-18T00:18:23.679Z,13.10
2022-10-18T00:23:26.862Z,13.10
2022-10-18T00:28:29.456Z,13.00
2022-10-18T00:33:31.779Z,13.00
2022-10-18T00:38:34.403Z,13.00
2022-10-18T00:44:01.321Z,13.00
2022-10-18T00:49:22.366Z,12.90
2022-10-18T00:54:25.524Z,13.00
2022-10-18T00:59:29.078Z,12.90
2022-10-18T01:04:31.441Z,12.70
2022-10-18T01:10:03.126Z,12.90
2022-10-18T01:15:21.724Z,12.90
2022-10-18T01:20:33.206Z,12.70
2022-10-18T01:26:21.883Z,12.70
2022-10-18T01:31:45.210Z,12.60
2022-10-18T01:36:53.790Z,12.50
2022-10-18T01:41:58.882Z,12.50
2022-10-18T01:47:01.764Z,12.60
2022-10-18T01:52:04.183Z,12.30
2022-10-18T01:57:18.122Z,12.50
2022-10-18T02:02:28.807Z,12.40
2022-10-18T02:08:12.026Z,12.40
2022-10-18T02:13:21.318Z,12.40
2022-10-18T02:18:30.581Z,12.40
2022-10-18T02:23:35.088Z,12.20
2022-10-18T02:28:37.585Z,12.20
2022-10-18T02:33:53.224Z,12.20
2022-10-18T02:39:01.636Z,12.40
2022-10-18T02:44:04.024Z,12.20
2022-10-18T02:49:06.657Z,12.30
2022-10-18T02:54:09.217Z,12.10
2022-10-18T02:59:12.350Z,12.00
2022-10-18T03:04:14.754Z,12.10
2022-10-18T03:09:17.122Z,12.10
2022-10-18T03:14:19.472Z,12.20
2022-10-18T03:19:21.887Z,11.90
2022-10-18T03:24:24.161Z,11.70
2022-10-18T03:29:26.419Z,11.90
2022-10-18T03:34:28.745Z,11.90
2022-10-18T03:39:31.019Z,11.70
2022-10-18T03:44:33.320Z,11.80
2022-10-18T03:49:36.064Z,11.80
2022-10-18T03:54:38.460Z,11.80
2022-10-18T03:59:40.766Z,11.60
2022-10-18T04:04:43.063Z,11.80
2022-10-18T04:09:45.647Z,11.60
2022-10-18T04:14:48.003Z,11.70
2022-10-18T04:19:50.619Z,11.40
2022-10-18T04:24:53.425Z,11.40
2022-10-18T04:29:55.845Z,11.70
2022-10-18T04:34:58.412Z,11.80
2022-10-18T04:40:00.658Z,11.60
2022-10-18T04:45:03.323Z,11.80
2022-10-18T04:50:06.120Z,11.70
2022-10-18T04:55:08.614Z,11.80
2022-10-18T05:00:11.590Z,11.90
2022-10-18T05:05:14.378Z,12.10
2022-10-18T05:10:16.856Z,12.10
2022-10-18T05:15:19.159Z,12.20
2022-10-18T05:20:21.560Z,12.30
2022-10-18T05:25:24.045Z,12.30
2022-10-18T05:30:27.030Z,12.40
2022-10-18T05:35:29.438Z,12.30
2022-10-18T05:40:33.102Z,12.50
2022-10-18T05:45:35.472Z,12.40
2022-10-18T05:50:40.220Z,12.50
2022-10-18T05:55:42.878Z,12.50
2022-10-18T06:00:45.756Z,12.80
2022-10-18T06:05:48.115Z,12.80
2022-10-18T06:10:50.492Z,13.00
2022-10-18T06:15:57.137Z,13.30
2022-10-18T06:20:59.759Z,13.40
2022-10-18T06:26:04.945Z,13.50
2022-10-18T06:31:07.778Z,13.70
2022-10-18T06:36:19.204Z,13.60
2022-10-18T06:41:22.065Z,13.70
2022-10-18T06:46:24.849Z,13.80
2022-10-18T06:51:27.167Z,13.90
2022-10-18T06:56:29.618Z,14.00
2022-10-18T07:01:32.062Z,14.10
2022-10-18T07:06:34.410Z,14.10
2022-10-18T07:11:37.163Z,14.30
2022-10-18T07:16:39.593Z,14.40
2022-10-18T07:21:42.011Z,14.50
2022-10-18T07:26:44.373Z,14.60
2022-10-18T07:31:46.629Z,14.70
2022-10-18T07:36:48.909Z,14.70
2022-10-18T07:41:51.186Z,14.90
2022-10-18T07:46:53.758Z,15.10
2022-10-18T07:51:56.230Z,15.20
2022-10-18T07:56:58.666Z,15.30
2022-10-18T08:02:01.122Z,15.40
2022-10-18T08:07:03.449Z,15.40
2022-10-18T08:12:05.938Z,15.30
2022-10-18T08:17:08.379Z,15.20
2022-10-18T08:22:10.792Z,15.20
2022-10-18T08:27:13.228Z,15.10
2022-10-18T08:32:15.658Z,15.20
2022-10-18T08:37:18.002Z,15.20
2022-10-18T08:42:40.988Z,15.30
2022-10-18T08:47:46.413Z,15.50
2022-10-18T08:53:05.523Z,15.60
2022-10-18T08:58:33.987Z,15.60
2022-10-18T09:03:48.281Z,15.90
2022-10-18T09:09:06.058Z,16.00
2022-10-18T09:14:18.031Z,16.00
2022-10-18T09:19:48.321Z,16.00
2022-10-18T09:24:56.530Z,16.00
2022-10-18T09:30:29.473Z,15.90
2022-10-18T09:35:41.102Z,15.90
2022-10-18T09:40:56.542Z,15.80
2022-10-18T09:45:59.115Z,15.60
2022-10-18T09:51:08.063Z,15.60
2022-10-18T09:56:25.090Z,15.50
2022-10-18T10:01:30.799Z,15.50
2022-10-18T10:06:39.207Z,15.70
2022-10-18T10:11:51.219Z,15.70
2022-10-18T10:16:55.273Z,15.40
2022-10-18T10:22:03.452Z,15.30
2022-10-18T10:27:13.808Z,15.20
2022-10-18T10:32:22.191Z,15.10
2022-10-18T10:37:27.645Z,15.10
2022-10-18T10:42:30.766Z,14.90
2022-10-18T10:47:34.268Z,15.00
2022-10-18T10:52:40.288Z,15.00
2022-10-18T10:57:48.648Z,15.10
2022-10-18T11:03:27.280Z,15.20
2022-10-18T11:08:40.159Z,15.20
2022-10-18T11:14:07.230Z,15.20
2022-10-18T11:19:32.531Z,15.30
2022-10-18T11:24:36.006Z,15.40
2022-10-18T11:30:17.271Z,15.40
2022-10-18T11:35:38.995Z,15.40
2022-10-18T11:41:19.730Z,15.40
2022-10-18T11:46:33.803Z,15.30
2022-10-18T11:52:07.844Z,15.20
2022-10-18T11:57:28.599Z,15.20
2022-10-18T12:02:31.355Z,15.10
2022-10-18T12:07:39.908Z,15.00
2022-10-18T12:12:52.840Z,14.80
2022-10-18T12:17:59.744Z,14.70
2022-10-18T12:23:25.529Z,14.60
2022-10-18T12:28:49.182Z,14.60
2022-10-18T12:33:56.797Z,14.70
2022-10-18T12:39:01.638Z,14.70
2022-10-18T12:44:19.707Z,14.70
2022-10-18T12:49:32.887Z,14.60
2022-10-18T12:54:37.597Z,14.70
2022-10-18T12:59:41.159Z,14.70
2022-10-18T13:04:43.539Z,14.60
2022-10-18T13:10:11.107Z,14.40
2022-10-18T13:15:59.160Z,14.50
2022-10-18T13:21:20.408Z,14.60
2022-10-18T13:26:58.145Z,14.60
2022-10-18T13:32:34.132Z,14.60
2022-10-18T13:37:37.326Z,14.60
2022-10-18T13:42:39.739Z,14.50
2022-10-18T13:47:42.164Z,14.50
2022-10-18T13:53:18.347Z,14.50
2022-10-18T13:58:48.777Z,14.50
2022-10-18T14:04:23.130Z,14.50
2022-10-18T14:09:45.296Z,14.40
2022-10-18T14:14:57.862Z,14.30
2022-10-18T14:20:21.179Z,14.20
2022-10-18T14:25:29.518Z,14.20
2022-10-18T14:30:31.977Z,14.20
2022-10-18T14:35:39.091Z,14.20
2022-10-18T14:40:41.676Z,14.20
2022-10-18T14:45:44.661Z,14.20
2022-10-18T14:50:59.114Z,14.20
2022-10-18T14:56:06.020Z,14.20
2022-10-18T15:01:15.208Z,14.20
2022-10-18T15:06:19.671Z,14.10
2022-10-18T15:11:22.778Z,14.20
2022-10-18T15:16:30.876Z,14.10
2022-10-18T15:21:35.785Z,14.00
2022-10-18T15:26:44.099Z,14.10
2022-10-18T15:31:49.361Z,14.10
2022-10-18T15:36:54.272Z,14.10
2022-10-18T15:42:02.364Z,14.10
2022-10-18T15:47:22.921Z,14.00
2022-10-18T15:52:42.284Z,14.10
2022-10-18T15:57:45.123Z,14.00
2022-10-18T16:02:47.643Z,14.00
2022-10-18T16:07:53.212Z,13.90
2022-10-18T16:18:03.309Z,13.90
2022-10-18T16:23:37.690Z,13.90
2022-10-18T16:28:40.190Z,13.90
2022-10-18T16:33:42.849Z,13.90
2022-10-18T16:38:45.646Z,13.80
2022-10-18T16:43:49.160Z,13.80
2022-10-18T16:48:51.708Z,13.80
2022-10-18T16:53:54.619Z,13.80
2022-10-18T16:58:58.266Z,13.90
2022-10-18T17:04:00.601Z,13.90
2022-10-18T17:09:03.396Z,13.90
2022-10-18T17:14:05.785Z,13.90
2022-10-18T17:19:10.764Z,13.90
2022-10-18T17:24:13.119Z,13.70
2022-10-18T17:29:15.980Z,13.80
2022-10-18T17:34:21.417Z,13.60
2022-10-18T17:39:23.989Z,13.60
2022-10-18T17:44:26.560Z,13.50
2022-10-18T17:49:29.033Z,13.40
2022-10-18T17:54:31.472Z,13.30
2022-10-18T17:59:33.871Z,13.20
2022-10-18T18:04:36.319Z,13.10
2022-10-18T18:09:38.850Z,13.00
2022-10-18T18:14:41.226Z,13.10
2022-10-18T18:19:44.046Z,13.20
2022-10-18T18:24:46.561Z,13.10
2022-10-18T18:29:49.956Z,13.00
2022-10-18T18:34:52.360Z,13.00
2022-10-18T18:39:54.797Z,13.00
2022-10-18T18:44:57.190Z,13.00
2022-10-18T18:49:59.552Z,13.00
2022-10-18T18:55:01.916Z,13.00
2022-10-18T19:00:04.658Z,13.00
2022-10-18T19:05:07.488Z,13.00
2022-10-18T19:10:09.905Z,13.00
2022-10-18T19:15:12.426Z,13.00
2022-10-18T19:20:17.894Z,13.20
2022-10-18T19:25:23.369Z,13.00
2022-10-18T19:30:28.640Z,12.90
2022-10-18T19:35:30.972Z,12.80
2022-10-18T19:40:33.343Z,12.70
2022-10-18T19:45:35.698Z,12.70
2022-10-18T19:50:38.105Z,12.50
2022-10-18T19:55:40.523Z,12.50
2022-10-18T20:00:42.886Z,12.40
2022-10-18T20:05:45.282Z,12.30
2022-10-18T20:10:47.692Z,12.40
2022-10-18T20:15:51.428Z,12.10
2022-10-18T20:20:54.376Z,12.20
2022-10-18T20:26:00.607Z,12.30
2022-10-18T20:31:07.112Z,12.10
2022-10-18T20:36:14.570Z,12.10
2022-10-18T20:41:23.475Z,12.00
2022-10-18T20:46:27.402Z,12.00
2022-10-18T20:51:29.876Z,12.20
2022-10-18T20:56:34.305Z,12.10
2022-10-18T21:01:38.440Z,12.00
2022-10-18T21:06:43.336Z,12.20
2022-10-18T21:11:49.540Z,12.10
2022-10-18T21:16:52.769Z,11.90
2022-10-18T21:21:57.417Z,11.80
2022-10-18T21:27:00.424Z,11.80
2022-10-18T21:32:03.160Z,11.80
2022-10-18T21:37:05.533Z,11.70
2022-10-18T21:42:08.725Z,11.60
2022-10-18T21:47:11.117Z,11.60
2022-10-18T21:52:13.520Z,11.60
2022-10-18T21:57:15.887Z,11.40
2022-10-18T22:02:18.284Z,11.20
2022-10-18T22:07:20.752Z,11.40
2022-10-18T22:12:23.066Z,11.30
2022-10-18T22:17:26.093Z,11.40
2022-10-18T22:22:28.882Z,11.40
2022-10-18T22:27:31.867Z,11.30
2022-10-18T22:32:34.428Z,11.20
2022-10-18T22:37:37.020Z,11.10
2022-10-18T22:42:39.493Z,11.10
2022-10-18T22:47:41.879Z,11.00
2022-10-18T22:52:44.394Z,10.90
2022-10-18T22:57:46.781Z,10.90
2022-10-18T23:02:49.974Z,11.00
2022-10-18T23:07:52.325Z,11.00
2022-10-18T23:12:54.715Z,11.20
2022-10-18T23:18:00.304Z,11.40
2022-10-18T23:23:03.248Z,11.30
2022-10-18T23:28:06.162Z,11.20
2022-10-18T23:33:08.508Z,11.30
2022-10-18T23:38:10.896Z,11.40
2022-10-18T23:43:13.302Z,11.30
2022-10-18T23:48:15.683Z,11.40
2022-10-18T23:53:21.514Z,11.30
2022-10-18T23:58:24.676Z,11.40
